createdAt,value
2018-05-04T00:00:29.086Z,7.64
2018-05-04T00:01:37.920Z,7.75
2018-05-04T00:02:46.753Z,7.71
2018-05-04T00:03:55.861Z,7.72
2018-05-04T00:05:04.842Z,7.64
2018-05-04T00:06:13.677Z,7.6
2018-05-04T00:07:22.506Z,7.64
2018-05-04T00:08:31.339Z,7.63
2018-05-04T00:09:40.998Z,7.58
2018-05-04T00:10:49.834Z,7.6
2018-05-04T00:11:58.663Z,7.58
2018-05-04T00:13:07.494Z,7.52
2018-05-04T00:14:16.603Z,7.5
2018-05-04T00:15:25.436Z,7.45
2018-05-04T00:16:34.364Z,7.43
2018-05-04T00:17:43.192Z,7.46
2018-05-04T00:18:52.021Z,7.42
2018-05-04T00:20:00.853Z,7.45
2018-05-04T00:21:09.957Z,7.39
2018-05-04T00:22:18.788Z,7.37
2018-05-04T00:23:27.900Z,7.46
2018-05-04T00:24:36.731Z,7.45
2018-05-04T00:25:45.560Z,7.35
2018-05-04T00:26:54.392Z,7.28
2018-05-04T00:28:03.323Z,7.31
2018-05-04T00:29:12.152Z,7.21
2018-05-04T00:30:20.982Z,7.16
2018-05-04T00:31:29.817Z,7.2
2018-05-04T00:32:38.650Z,7.21
2018-05-04T00:33:47.757Z,7.17
2018-05-04T00:34:56.589Z,7.02
2018-05-04T00:36:05.424Z,7.02
2018-05-04T00:37:14.251Z,7.06
2018-05-04T00:38:23.360Z,7.02
2018-05-04T00:39:32.517Z,6.98
2018-05-04T00:40:41.347Z,6.99
2018-05-04T00:41:50.455Z,6.99
2018-05-04T00:42:59.285Z,6.88
2018-05-04T00:44:08.114Z,6.94
2018-05-04T00:45:17.281Z,6.95
2018-05-04T00:46:26.392Z,6.91
2018-05-04T00:47:35.219Z,6.89
2018-05-04T00:48:44.330Z,6.88
2018-05-04T00:49:53.431Z,6.85
2018-05-04T00:51:02.363Z,6.85
2018-05-04T00:52:11.192Z,6.91
2018-05-04T00:53:20.021Z,6.91
2018-05-04T00:54:29.128Z,6.91
2018-05-04T00:55:38.304Z,6.99
2018-05-04T00:56:47.281Z,6.99
2018-05-04T00:57:56.111Z,6.99
2018-05-04T00:59:04.939Z,6.95
2018-05-04T01:00:13.769Z,6.95
2018-05-04T01:01:22.597Z,6.79
2018-05-04T01:02:31.576Z,6.85
2018-05-04T01:03:40.413Z,6.87
2018-05-04T01:04:49.536Z,6.85
2018-05-04T01:05:58.368Z,6.91
2018-05-04T01:07:07.470Z,6.89
2018-05-04T01:08:16.300Z,6.74
2018-05-04T01:09:25.132Z,6.87
2018-05-04T01:10:34.512Z,6.76
2018-05-04T01:11:43.911Z,6.79
2018-05-04T01:12:53.014Z,6.76
2018-05-04T01:14:02.215Z,6.76
2018-05-04T01:15:11.057Z,6.87
2018-05-04T01:16:20.158Z,6.76
2018-05-04T01:17:28.986Z,6.61
2018-05-04T01:18:38.089Z,6.67
2018-05-04T01:19:46.917Z,6.71
2018-05-04T01:20:55.749Z,6.71
2018-05-04T01:22:04.579Z,6.64
2018-05-04T01:23:13.407Z,6.73
2018-05-04T01:24:22.239Z,6.64
2018-05-04T01:25:31.442Z,6.77
2018-05-04T01:26:40.545Z,6.71
2018-05-04T01:27:49.375Z,6.61
2018-05-04T01:28:58.202Z,6.69
2018-05-04T01:30:07.035Z,6.67
2018-05-04T01:31:15.867Z,6.71
2018-05-04T01:32:24.698Z,6.69
2018-05-04T01:33:34.075Z,6.67
2018-05-04T01:34:42.904Z,6.61
2018-05-04T01:35:51.990Z,6.71
2018-05-04T01:37:01.093Z,6.62
2018-05-04T01:38:09.924Z,6.67
2018-05-04T01:39:18.755Z,6.62
2018-05-04T01:40:27.586Z,6.66
2018-05-04T01:41:36.695Z,6.52
2018-05-04T01:42:45.520Z,6.51
2018-05-04T01:43:54.350Z,6.48
2018-05-04T01:45:03.180Z,6.46
2018-05-04T01:46:12.008Z,6.46
2018-05-04T01:47:20.837Z,6.46
2018-05-04T01:48:29.665Z,6.49
2018-05-04T01:49:38.498Z,6.49
2018-05-04T01:50:47.332Z,6.51
2018-05-04T01:51:56.164Z,6.52
2018-05-04T01:53:04.994Z,6.49
2018-05-04T01:54:13.968Z,6.4
2018-05-04T01:55:22.799Z,6.4
2018-05-04T01:56:31.632Z,6.41
2018-05-04T01:57:40.739Z,6.41
2018-05-04T01:58:49.567Z,6.43
2018-05-04T01:59:58.695Z,6.38
2018-05-04T02:01:07.525Z,6.4
2018-05-04T02:02:16.633Z,6.4
2018-05-04T02:03:25.736Z,6.36
2018-05-04T02:04:34.567Z,6.38
2018-05-04T02:05:43.696Z,6.4
2018-05-04T02:06:52.527Z,6.4
2018-05-04T02:08:01.357Z,6.27
2018-05-04T02:09:10.464Z,6.37
2018-05-04T02:10:19.297Z,6.34
2018-05-04T02:11:28.230Z,6.28
2018-05-04T02:12:37.061Z,6.28
2018-05-04T02:13:46.172Z,6.28
2018-05-04T02:14:55.001Z,6.33
2018-05-04T02:16:04.110Z,6.28
2018-05-04T02:17:13.091Z,6.28
2018-05-04T02:18:21.922Z,6.18
2018-05-04T02:19:31.023Z,6.28
2018-05-04T02:20:39.853Z,6.27
2018-05-04T02:21:48.960Z,6.22
2018-05-04T02:22:57.894Z,6.18
2018-05-04T02:24:06.729Z,6.19
2018-05-04T02:25:15.660Z,6.27
2018-05-04T02:26:24.490Z,6.11
2018-05-04T02:27:33.325Z,6.15
2018-05-04T02:28:42.355Z,6.17
2018-05-04T02:29:51.188Z,6.06
2018-05-04T02:31:00.302Z,6.11
2018-05-04T02:32:09.411Z,6.09
2018-05-04T02:33:18.237Z,6.15
2018-05-04T02:34:27.467Z,6.11
2018-05-04T02:35:36.298Z,6.08
2018-05-04T02:36:45.417Z,6.14
2018-05-04T02:37:54.525Z,6.06
2018-05-04T02:39:03.629Z,6.11
2018-05-04T02:40:12.561Z,6.08
2018-05-04T02:41:21.678Z,6.01
2018-05-04T02:42:30.507Z,6.06
2018-05-04T02:43:39.353Z,6.14
2018-05-04T02:44:48.741Z,6.11
2018-05-04T02:45:58.184Z,6.08
2018-05-04T02:47:07.574Z,6.11
2018-05-04T02:48:16.401Z,6.04
2018-05-04T02:49:25.236Z,6.11
2018-05-04T02:50:34.347Z,6.09
2018-05-04T02:51:43.444Z,6.09
2018-05-04T02:52:52.529Z,6.09
2018-05-04T02:54:01.651Z,6.06
2018-05-04T02:55:11.032Z,6.06
2018-05-04T02:56:20.136Z,6.06
2018-05-04T02:57:29.903Z,6.09
2018-05-04T02:58:39.010Z,6
2018-05-04T02:59:48.399Z,5.94
2018-05-04T03:00:57.508Z,6.06
2018-05-04T03:02:06.331Z,5.94
2018-05-04T03:03:15.601Z,5.93
2018-05-04T03:04:24.430Z,5.99
2018-05-04T03:05:33.816Z,5.94
2018-05-04T03:06:42.647Z,5.85
2018-05-04T03:07:52.046Z,5.99
2018-05-04T03:09:00.973Z,5.93
2018-05-04T03:10:09.802Z,5.93
2018-05-04T03:11:18.633Z,5.86
2018-05-04T03:12:27.470Z,5.9
2018-05-04T03:13:36.579Z,5.82
2018-05-04T03:14:45.936Z,5.67
2018-05-04T03:15:55.064Z,5.67
2018-05-04T03:17:03.877Z,5.76
2018-05-04T03:18:12.703Z,5.71
2018-05-04T03:19:21.535Z,5.72
2018-05-04T03:20:30.363Z,5.68
2018-05-04T03:21:39.192Z,5.6
2018-05-04T03:22:48.021Z,5.6
2018-05-04T03:23:56.860Z,5.63
2018-05-04T03:25:05.682Z,5.67
2018-05-04T03:26:14.661Z,5.64
2018-05-04T03:27:23.488Z,5.64
2018-05-04T03:28:32.318Z,5.65
2018-05-04T03:29:41.147Z,5.72
2018-05-04T03:30:49.992Z,5.74
2018-05-04T03:31:59.720Z,5.65
2018-05-04T03:33:08.547Z,5.63
2018-05-04T03:34:17.378Z,5.6
2018-05-04T03:35:26.205Z,5.65
2018-05-04T03:36:35.313Z,5.65
2018-05-04T03:37:44.340Z,5.63
2018-05-04T03:38:53.167Z,5.68
2018-05-04T03:40:01.993Z,5.65
2018-05-04T03:41:10.826Z,5.68
2018-05-04T03:42:20.206Z,5.78
2018-05-04T03:43:29.411Z,5.67
2018-05-04T03:44:38.240Z,5.72
2018-05-04T03:45:47.068Z,5.71
2018-05-04T03:46:56.197Z,5.67
2018-05-04T03:48:05.301Z,5.67
2018-05-04T03:49:14.181Z,5.61
2018-05-04T03:50:23.006Z,5.72
2018-05-04T03:51:31.835Z,5.68
2018-05-04T03:52:40.665Z,5.68
2018-05-04T03:53:49.493Z,5.68
2018-05-04T03:54:58.427Z,5.72
2018-05-04T03:56:07.248Z,5.76
2018-05-04T03:57:16.075Z,5.67
2018-05-04T03:58:24.903Z,5.65
2018-05-04T03:59:33.733Z,5.65
2018-05-04T04:00:43.190Z,5.72
2018-05-04T04:01:52.021Z,5.65
2018-05-04T04:03:01.133Z,5.68
2018-05-04T04:04:09.953Z,5.65
2018-05-04T04:05:18.784Z,5.67
2018-05-04T04:06:27.944Z,5.65
2018-05-04T04:07:36.776Z,5.68
2018-05-04T04:08:45.605Z,5.65
2018-05-04T04:09:54.436Z,5.6
2018-05-04T04:11:03.538Z,5.63
2018-05-04T04:12:12.643Z,5.65
2018-05-04T04:13:21.472Z,5.67
2018-05-04T04:14:30.578Z,5.74
2018-05-04T04:15:39.406Z,5.72
2018-05-04T04:16:48.234Z,5.71
2018-05-04T04:17:57.501Z,5.65
2018-05-04T04:19:06.304Z,5.75
2018-05-04T04:20:15.480Z,5.68
2018-05-04T04:21:24.359Z,5.76
2018-05-04T04:22:33.460Z,5.72
2018-05-04T04:23:42.293Z,5.67
2018-05-04T04:24:51.397Z,5.82
2018-05-04T04:26:00.226Z,5.81
2018-05-04T04:27:09.602Z,5.82
2018-05-04T04:28:18.510Z,5.9
2018-05-04T04:29:27.543Z,5.86
2018-05-04T04:30:36.370Z,5.89
2018-05-04T04:31:45.199Z,5.85
2018-05-04T04:32:54.024Z,5.83
2018-05-04T04:34:02.854Z,5.93
2018-05-04T04:35:11.686Z,5.85
2018-05-04T04:36:20.516Z,5.94
2018-05-04T04:37:29.345Z,5.91
2018-05-04T04:38:38.174Z,5.93
2018-05-04T04:39:47.004Z,6
2018-05-04T04:40:56.108Z,6
2018-05-04T04:42:04.936Z,6.03
2018-05-04T04:43:13.765Z,6.09
2018-05-04T04:44:22.595Z,6.06
2018-05-04T04:45:31.485Z,6
2018-05-04T04:46:40.828Z,6.06
2018-05-04T04:47:49.659Z,6.06
2018-05-04T04:48:58.917Z,6.03
2018-05-04T04:50:08.766Z,6.01
2018-05-04T04:51:18.198Z,6.08
2018-05-04T04:52:27.303Z,6.14
2018-05-04T04:53:36.133Z,6.06
2018-05-04T04:54:45.062Z,6.03
2018-05-04T04:55:53.891Z,6.12
2018-05-04T04:57:02.722Z,6.21
2018-05-04T04:58:11.828Z,6.19
2018-05-04T04:59:20.659Z,6.27
2018-05-04T05:00:29.765Z,6.3
2018-05-04T05:01:38.596Z,6.34
2018-05-04T05:02:47.426Z,6.34
2018-05-04T05:03:56.255Z,6.41
2018-05-04T05:05:05.084Z,6.36
2018-05-04T05:06:13.914Z,6.31
2018-05-04T05:07:22.747Z,6.37
2018-05-04T05:08:31.847Z,6.36
2018-05-04T05:09:40.677Z,6.4
2018-05-04T05:10:49.784Z,6.43
2018-05-04T05:11:58.618Z,6.55
2018-05-04T05:13:07.728Z,6.58
2018-05-04T05:14:16.557Z,6.62
2018-05-04T05:15:25.384Z,6.67
2018-05-04T05:16:34.494Z,6.71
2018-05-04T05:17:43.326Z,6.71
2018-05-04T05:18:52.433Z,6.71
2018-05-04T05:20:01.262Z,6.67
2018-05-04T05:21:10.092Z,6.66
2018-05-04T05:22:19.196Z,6.73
2018-05-04T05:23:28.027Z,6.74
2018-05-04T05:24:36.857Z,6.87
2018-05-04T05:25:45.691Z,6.92
2018-05-04T05:26:54.825Z,6.81
2018-05-04T05:28:03.625Z,6.92
2018-05-04T05:29:12.460Z,6.98
2018-05-04T05:30:21.337Z,7.02
2018-05-04T05:31:30.793Z,7.06
2018-05-04T05:32:39.628Z,7.1
2018-05-04T05:33:48.730Z,7.13
2018-05-04T05:34:57.561Z,7.16
2018-05-04T05:36:06.391Z,7.2
2018-05-04T05:37:15.373Z,7.16
2018-05-04T05:38:24.485Z,7.3
2018-05-04T05:39:33.318Z,7.27
2018-05-04T05:40:42.150Z,7.32
2018-05-04T05:41:50.983Z,7.31
2018-05-04T05:43:00.191Z,7.25
2018-05-04T05:44:09.296Z,7.32
2018-05-04T05:45:18.127Z,7.32
2018-05-04T05:46:27.245Z,7.37
2018-05-04T05:47:36.075Z,7.31
2018-05-04T05:48:45.157Z,7.31
2018-05-04T05:49:53.988Z,7.31
2018-05-04T05:51:02.819Z,7.28
2018-05-04T05:52:11.653Z,7.3
2018-05-04T05:53:20.485Z,7.3
2018-05-04T05:54:29.418Z,7.27
2018-05-04T05:55:38.534Z,7.35
2018-05-04T05:56:47.645Z,7.35
2018-05-04T05:57:56.807Z,7.45
2018-05-04T05:59:05.899Z,7.48
2018-05-04T06:00:14.728Z,7.48
2018-05-04T06:01:23.559Z,7.49
2018-05-04T06:02:32.681Z,7.53
2018-05-04T06:03:41.514Z,7.48
2018-05-04T06:04:50.347Z,7.53
2018-05-04T06:05:59.458Z,7.67
2018-05-04T06:07:08.290Z,7.67
2018-05-04T06:08:17.128Z,7.68
2018-05-04T06:09:26.447Z,7.75
2018-05-04T06:10:35.509Z,7.83
2018-05-04T06:11:44.612Z,7.85
2018-05-04T06:12:53.443Z,7.82
2018-05-04T06:14:02.278Z,7.89
2018-05-04T06:15:11.469Z,7.89
2018-05-04T06:16:20.580Z,7.9
2018-05-04T06:17:29.416Z,7.9
2018-05-04T06:18:38.245Z,7.97
2018-05-04T06:19:47.076Z,8
2018-05-04T06:20:55.907Z,8.07
2018-05-04T06:22:04.740Z,8.1
2018-05-04T06:23:13.573Z,8.1
2018-05-04T06:24:22.689Z,8.05
2018-05-04T06:25:31.520Z,8.08
2018-05-04T06:26:40.626Z,8.19
2018-05-04T06:27:49.464Z,8.12
2018-05-04T06:28:58.570Z,8.26
2018-05-04T06:30:07.405Z,8.3
2018-05-04T06:31:16.439Z,8.33
2018-05-04T06:32:25.266Z,8.28
2018-05-04T06:33:34.105Z,8.33
2018-05-04T06:34:43.212Z,8.36
2018-05-04T06:35:52.046Z,8.45
2018-05-04T06:37:01.407Z,8.38
2018-05-04T06:38:10.519Z,8.44
2018-05-04T06:39:19.458Z,8.45
2018-05-04T06:40:28.844Z,8.45
2018-05-04T06:41:37.950Z,8.56
2018-05-04T06:42:46.988Z,8.59
2018-05-04T06:43:55.819Z,8.62
2018-05-04T06:45:04.652Z,8.61
2018-05-04T06:46:13.486Z,8.59
2018-05-04T06:47:22.321Z,8.66
2018-05-04T06:48:31.406Z,8.74
2018-05-04T06:49:40.238Z,8.76
2018-05-04T06:50:49.068Z,8.74
2018-05-04T06:51:58.181Z,8.77
2018-05-04T06:53:07.016Z,8.86
2018-05-04T06:54:16.250Z,8.99
2018-05-04T06:55:25.357Z,9.02
2018-05-04T06:56:34.191Z,9.08
2018-05-04T06:57:43.024Z,9.05
2018-05-04T06:58:51.857Z,9.05
2018-05-04T07:00:00.841Z,9.1
2018-05-04T07:01:09.677Z,9.17
2018-05-04T07:02:18.791Z,9.15
2018-05-04T07:03:27.624Z,9.26
2018-05-04T07:04:36.457Z,9.26
2018-05-04T07:05:45.305Z,9.29
2018-05-04T07:06:54.125Z,9.39
2018-05-04T07:08:02.958Z,9.38
2018-05-04T07:09:12.063Z,9.42
2018-05-04T07:10:20.935Z,9.54
2018-05-04T07:11:29.783Z,9.65
2018-05-04T07:12:38.622Z,9.64
2018-05-04T07:13:47.729Z,9.65
2018-05-04T07:14:56.572Z,9.68
2018-05-04T07:16:05.403Z,9.64
2018-05-04T07:17:14.282Z,9.84
2018-05-04T07:18:23.117Z,9.87
2018-05-04T07:19:31.952Z,9.93
2018-05-04T07:20:40.787Z,9.79
2018-05-04T07:21:49.619Z,9.9
2018-05-04T07:22:58.452Z,9.81
2018-05-04T07:24:07.847Z,9.84
2018-05-04T07:25:16.682Z,9.89
2018-05-04T07:26:25.789Z,9.94
2018-05-04T07:27:34.621Z,9.93
2018-05-04T07:28:43.459Z,9.91
2018-05-04T07:29:53.018Z,9.96
2018-05-04T07:31:02.125Z,9.93
2018-05-04T07:32:11.238Z,9.97
2018-05-04T07:33:20.070Z,9.97
2018-05-04T07:34:29.255Z,9.97
2018-05-04T07:35:38.363Z,10.04
2018-05-04T07:36:47.477Z,10.08
2018-05-04T07:37:56.324Z,10.2
2018-05-04T07:39:05.195Z,10.32
2018-05-04T07:40:14.132Z,10.29
2018-05-04T07:41:22.966Z,10.27
2018-05-04T07:42:31.800Z,10.3
2018-05-04T07:43:40.633Z,10.33
2018-05-04T07:44:49.469Z,10.4
2018-05-04T07:45:58.304Z,10.45
2018-05-04T07:47:07.136Z,10.51
2018-05-04T07:48:16.525Z,10.51
2018-05-04T07:49:25.377Z,10.51
2018-05-04T07:50:34.492Z,10.53
2018-05-04T07:51:43.591Z,10.59
2018-05-04T07:52:52.887Z,10.74
2018-05-04T07:54:02.090Z,10.89
2018-05-04T07:55:12.084Z,10.89
2018-05-04T07:56:21.188Z,10.92
2018-05-04T07:57:59.836Z,11
2018-05-04T07:59:08.767Z,10.96
2018-05-04T08:00:17.672Z,11.03
2018-05-04T08:01:26.793Z,11.06
2018-05-04T08:02:36.140Z,11.06
2018-05-04T08:03:45.268Z,11.19
2018-05-04T08:04:54.349Z,11.25
2018-05-04T08:06:03.218Z,11.25
2018-05-04T08:07:12.307Z,11.22
2018-05-04T08:08:22.453Z,11.4
2018-05-04T08:09:31.666Z,11.4
2018-05-04T08:10:40.845Z,11.51
2018-05-04T08:11:50.911Z,11.58
2018-05-04T08:12:59.993Z,11.49
2018-05-04T08:14:08.933Z,11.55
2018-05-04T08:15:18.886Z,11.55
2018-05-04T08:16:28.196Z,11.69
2018-05-04T08:17:37.523Z,11.78
2018-05-04T08:18:46.673Z,11.72
2018-05-04T08:19:55.783Z,11.82
2018-05-04T08:21:05.249Z,11.82
2018-05-04T08:22:14.078Z,11.91
2018-05-04T08:23:22.912Z,11.95
2018-05-04T08:24:31.756Z,12.13
2018-05-04T08:25:40.623Z,12.24
2018-05-04T08:26:49.557Z,12.27
2018-05-04T08:27:58.396Z,12.28
2018-05-04T08:29:07.231Z,12.23
2018-05-04T08:30:16.067Z,12.19
2018-05-04T08:31:24.902Z,12.29
2018-05-04T08:32:33.784Z,12.38
2018-05-04T08:33:42.666Z,12.5
2018-05-04T08:34:51.730Z,12.47
2018-05-04T08:36:00.566Z,12.47
2018-05-04T08:37:09.402Z,12.42
2018-05-04T08:38:18.393Z,12.5
2018-05-04T08:39:27.265Z,12.39
2018-05-04T08:40:36.132Z,12.42
2018-05-04T08:41:45.602Z,12.31
2018-05-04T08:42:54.955Z,12.42
2018-05-04T08:44:04.360Z,12.46
2018-05-04T08:45:13.470Z,12.46
2018-05-04T08:46:22.307Z,12.53
2018-05-04T08:47:31.419Z,12.57
2018-05-04T08:48:40.257Z,12.53
2018-05-04T08:49:49.242Z,12.53
2018-05-04T08:50:58.104Z,12.56
2018-05-04T08:52:06.913Z,12.67
2018-05-04T08:53:15.748Z,12.7
2018-05-04T08:54:24.665Z,12.77
2018-05-04T08:55:33.926Z,12.79
2018-05-04T08:56:43.039Z,12.86
2018-05-04T08:57:52.152Z,12.93
2018-05-04T08:59:01.265Z,12.9
2018-05-04T09:00:10.100Z,12.82
2018-05-04T09:01:19.182Z,12.85
2018-05-04T09:02:28.294Z,12.97
2018-05-04T09:03:37.649Z,13
2018-05-04T09:04:46.716Z,13.05
2018-05-04T09:05:55.553Z,13.11
2018-05-04T09:07:04.638Z,13.19
2018-05-04T09:08:13.478Z,13.25
2018-05-04T09:09:22.320Z,13.11
2018-05-04T09:10:31.191Z,13.17
2018-05-04T09:11:40.025Z,13.17
2018-05-04T09:12:49.270Z,13.26
2018-05-04T09:13:58.060Z,13.41
2018-05-04T09:15:07.444Z,13.33
2018-05-04T09:16:16.610Z,13.39
2018-05-04T09:17:25.503Z,13.41
2018-05-04T09:18:34.639Z,13.45
2018-05-04T09:19:43.757Z,13.52
2018-05-04T09:20:52.938Z,13.64
2018-05-04T09:22:01.777Z,13.52
2018-05-04T09:23:10.888Z,13.42
2018-05-04T09:24:20.233Z,13.49
2018-05-04T09:25:29.343Z,13.54
2018-05-04T09:26:38.182Z,13.51
2018-05-04T09:27:47.567Z,13.55
2018-05-04T09:28:56.401Z,13.75
2018-05-04T09:30:05.486Z,13.79
2018-05-04T09:31:14.326Z,13.64
2018-05-04T09:32:23.439Z,13.64
2018-05-04T09:33:32.275Z,13.73
2018-05-04T09:34:41.393Z,13.77
2018-05-04T09:35:50.227Z,13.78
2018-05-04T09:36:59.063Z,13.71
2018-05-04T09:38:07.898Z,13.82
2018-05-04T09:39:17.019Z,13.71
2018-05-04T09:40:25.853Z,13.63
2018-05-04T09:41:34.838Z,13.84
2018-05-04T09:42:43.678Z,13.85
2018-05-04T09:43:52.946Z,13.78
2018-05-04T09:45:01.827Z,13.79
2018-05-04T09:46:10.623Z,13.88
2018-05-04T09:47:19.561Z,13.91
2018-05-04T09:48:28.408Z,13.88
2018-05-04T09:49:37.240Z,13.81
2018-05-04T09:50:46.083Z,13.88
2018-05-04T09:51:55.194Z,14.04
2018-05-04T09:53:04.179Z,13.95
2018-05-04T09:54:13.017Z,14.07
2018-05-04T09:55:21.852Z,14.07
2018-05-04T09:56:30.689Z,14.09
2018-05-04T09:57:39.800Z,14
2018-05-04T09:58:48.689Z,13.96
2018-05-04T09:59:57.806Z,14.18
2018-05-04T10:01:06.639Z,14.14
2018-05-04T10:02:15.482Z,14.24
2018-05-04T10:03:24.373Z,14.22
2018-05-04T10:04:33.769Z,14.2
2018-05-04T10:05:42.605Z,14.24
2018-05-04T10:06:51.443Z,14.32
2018-05-04T10:08:00.282Z,14.36
2018-05-04T10:09:09.121Z,14.37
2018-05-04T10:10:18.426Z,14.28
2018-05-04T10:11:27.262Z,14.32
2018-05-04T10:12:36.098Z,14.52
2018-05-04T10:13:44.933Z,14.55
2018-05-04T10:14:53.770Z,14.52
2018-05-04T10:16:03.405Z,14.7
2018-05-04T10:17:12.498Z,14.75
2018-05-04T10:18:21.331Z,14.88
2018-05-04T10:19:30.174Z,14.78
2018-05-04T10:20:39.013Z,14.6
2018-05-04T10:21:47.847Z,14.72
2018-05-04T10:22:57.042Z,14.89
2018-05-04T10:24:05.880Z,14.92
2018-05-04T10:25:15.004Z,14.98
2018-05-04T10:26:24.113Z,15.13
2018-05-04T10:27:33.052Z,15.25
2018-05-04T10:28:42.172Z,15.27
2018-05-04T10:29:51.008Z,15.28
2018-05-04T10:30:59.843Z,15.21
2018-05-04T10:32:08.678Z,15.27
2018-05-04T10:33:17.518Z,15.21
2018-05-04T10:34:26.358Z,15.23
2018-05-04T10:35:35.243Z,15.23
2018-05-04T10:36:44.082Z,15.28
2018-05-04T10:37:53.197Z,15.38
2018-05-04T10:39:02.116Z,15.56
2018-05-04T10:40:11.318Z,15.46
2018-05-04T10:41:20.154Z,15.43
2018-05-04T10:42:28.996Z,15.41
2018-05-04T10:43:38.383Z,15.38
2018-05-04T10:44:47.647Z,15.41
2018-05-04T10:45:56.486Z,15.47
2018-05-04T10:47:05.327Z,15.34
2018-05-04T10:48:14.162Z,15.44
2018-05-04T10:49:22.997Z,15.51
2018-05-04T10:50:31.884Z,15.49
2018-05-04T10:51:40.995Z,15.6
2018-05-04T10:52:49.837Z,15.6
2018-05-04T10:53:58.950Z,15.71
2018-05-04T10:55:08.065Z,15.82
2018-05-04T10:56:17.062Z,15.71
2018-05-04T10:57:25.901Z,15.64
2018-05-04T10:58:35.019Z,15.69
2018-05-04T10:59:44.129Z,15.71
2018-05-04T11:00:52.964Z,15.74
2018-05-04T11:02:02.050Z,15.75
2018-05-04T11:03:11.168Z,15.75
2018-05-04T11:04:20.291Z,15.87
2018-05-04T11:05:30.045Z,15.76
2018-05-04T11:06:38.893Z,15.76
2018-05-04T11:07:47.780Z,15.87
2018-05-04T11:08:56.622Z,15.83
2018-05-04T11:10:05.735Z,15.78
2018-05-04T11:11:14.572Z,15.74
2018-05-04T11:12:23.410Z,15.75
2018-05-04T11:13:32.702Z,15.78
2018-05-04T11:14:41.537Z,15.78
2018-05-04T11:15:50.374Z,15.87
2018-05-04T11:16:59.212Z,16.01
2018-05-04T11:18:08.047Z,16.05
2018-05-04T11:19:16.990Z,16.08
2018-05-04T11:20:25.827Z,16.12
2018-05-04T11:21:34.663Z,16.2
2018-05-04T11:22:43.500Z,16.23
2018-05-04T11:23:52.334Z,16.39
2018-05-04T11:25:02.080Z,16.34
2018-05-04T11:26:10.912Z,16.34
2018-05-04T11:27:20.033Z,16.42
2018-05-04T11:28:28.860Z,16.33
2018-05-04T11:29:37.694Z,16.45
2018-05-04T11:30:46.793Z,16.49
2018-05-04T11:31:56.293Z,16.76
2018-05-04T11:33:05.131Z,16.88
2018-05-04T11:34:13.963Z,16.88
2018-05-04T11:35:22.798Z,17.08
2018-05-04T11:36:32.410Z,17.06
2018-05-04T11:37:41.249Z,17.07
2018-05-04T11:38:50.155Z,17.14
2018-05-04T11:39:58.926Z,17.06
2018-05-04T11:41:07.762Z,16.93
2018-05-04T11:42:16.752Z,16.94
2018-05-04T11:43:25.596Z,17.07
2018-05-04T11:44:34.438Z,17.15
2018-05-04T11:45:43.843Z,17.19
2018-05-04T11:46:52.682Z,17.31
2018-05-04T11:48:01.666Z,17.48
2018-05-04T11:49:10.783Z,17.54
2018-05-04T11:50:19.628Z,17.63
2018-05-04T11:51:28.459Z,17.68
2018-05-04T11:52:37.299Z,17.72
2018-05-04T11:53:46.236Z,17.62
2018-05-04T11:54:55.353Z,17.75
2018-05-04T11:56:04.192Z,17.78
2018-05-04T11:57:13.031Z,17.78
2018-05-04T11:58:21.870Z,17.68
2018-05-04T11:59:30.861Z,17.78
2018-05-04T12:00:39.704Z,17.9
2018-05-04T12:01:48.545Z,17.74
2018-05-04T12:02:57.385Z,17.68
2018-05-04T12:04:06.499Z,17.87
2018-05-04T12:05:16.877Z,18.03
2018-05-04T12:06:26.043Z,17.99
2018-05-04T12:07:35.328Z,18
2018-05-04T12:08:44.290Z,17.89
2018-05-04T12:09:53.528Z,17.92
2018-05-04T12:11:03.029Z,18.1
2018-05-04T12:12:11.977Z,18.25
2018-05-04T12:13:20.823Z,18.41
2018-05-04T12:14:29.667Z,18.47
2018-05-04T12:15:38.509Z,18.52
2018-05-04T12:16:47.405Z,18.69
2018-05-04T12:17:56.247Z,18.75
2018-05-04T12:19:05.096Z,18.84
2018-05-04T12:20:13.940Z,18.98
2018-05-04T12:21:22.786Z,18.99
2018-05-04T12:22:31.983Z,18.94
2018-05-04T12:23:40.828Z,18.95
2018-05-04T12:24:49.674Z,18.88
2018-05-04T12:25:58.518Z,18.84
2018-05-04T12:27:07.371Z,18.92
2018-05-04T12:28:16.548Z,18.92
2018-05-04T12:29:25.669Z,19.16
2018-05-04T12:30:34.548Z,19.33
2018-05-04T12:31:43.676Z,19.36
2018-05-04T12:32:52.520Z,19.5
2018-05-04T12:34:01.760Z,19.4
2018-05-04T12:35:10.605Z,19.5
2018-05-04T12:36:19.927Z,19.43
2018-05-04T12:37:28.777Z,19.56
2018-05-04T12:38:37.675Z,19.59
2018-05-04T12:39:47.023Z,19.65
2018-05-04T12:40:55.873Z,19.56
2018-05-04T12:42:04.720Z,19.74
2018-05-04T12:43:13.569Z,19.87
2018-05-04T12:44:22.693Z,20.03
2018-05-04T12:45:32.214Z,20.11
2018-05-04T12:46:41.058Z,20.05
2018-05-04T12:47:49.911Z,20.11
2018-05-04T12:48:58.769Z,20.1
2018-05-04T12:50:07.898Z,20.2
2018-05-04T12:51:16.745Z,20.21
2018-05-04T12:52:25.594Z,20.41
2018-05-04T12:53:34.840Z,20.36
2018-05-04T12:54:44.453Z,20.31
2018-05-04T12:55:53.304Z,20.41
2018-05-04T12:57:02.532Z,20.36
2018-05-04T12:58:11.386Z,20.36
2018-05-04T12:59:20.233Z,20.52
2018-05-04T13:00:29.083Z,20.62
2018-05-04T13:01:38.204Z,20.59
2018-05-04T13:02:47.054Z,20.55
2018-05-04T13:03:55.905Z,20.66
2018-05-04T13:05:04.769Z,20.62
2018-05-04T13:06:13.619Z,20.84
2018-05-04T13:07:22.485Z,21.04
2018-05-04T13:08:31.334Z,21.01
2018-05-04T13:09:40.184Z,21.16
2018-05-04T13:10:49.312Z,21.21
2018-05-04T13:11:58.163Z,20.89
2018-05-04T13:13:07.011Z,20.88
2018-05-04T13:14:16.212Z,21.07
2018-05-04T13:15:25.063Z,20.98
2018-05-04T13:16:33.918Z,20.92
2018-05-04T13:17:42.772Z,20.84
2018-05-04T13:18:52.183Z,20.92
2018-05-04T13:20:01.390Z,21.04
2018-05-04T13:21:10.914Z,21.12
2018-05-04T13:22:19.767Z,21.16
2018-05-04T13:23:28.617Z,21.1
2018-05-04T13:24:37.470Z,21.24
2018-05-04T13:25:46.324Z,21.14
2018-05-04T13:26:55.188Z,21.1
2018-05-04T13:28:04.040Z,21.1
2018-05-04T13:29:12.892Z,21.17
2018-05-04T13:30:21.843Z,21.22
2018-05-04T13:31:30.699Z,21.65
2018-05-04T13:32:39.545Z,21.64
2018-05-04T13:33:48.723Z,21.72
2018-05-04T13:34:57.855Z,21.79
2018-05-04T13:36:06.705Z,21.79
2018-05-04T13:37:15.559Z,21.79
2018-05-04T13:38:24.415Z,22
2018-05-04T13:39:33.265Z,21.9
2018-05-04T13:40:42.121Z,21.94
2018-05-04T13:41:50.976Z,22.05
2018-05-04T13:42:59.826Z,22.24
2018-05-04T13:44:08.678Z,22.57
2018-05-04T13:45:17.629Z,22.67
2018-05-04T13:46:26.487Z,22.86
2018-05-04T13:47:35.334Z,23.15
2018-05-04T13:48:45.542Z,23.33
2018-05-04T13:49:54.397Z,23.38
2018-05-04T13:51:04.869Z,23.42
2018-05-04T13:52:17.661Z,23.54
2018-05-04T13:53:30.384Z,23.53
2018-05-04T13:54:43.618Z,23.54
2018-05-04T13:55:55.487Z,23.54
2018-05-04T13:57:08.789Z,23.55
2018-05-04T13:58:20.907Z,23.65
2018-05-04T13:59:34.242Z,23.68
2018-05-04T14:00:47.008Z,23.76
2018-05-04T14:01:58.178Z,23.97
2018-05-04T14:03:07.802Z,23.87
2018-05-04T14:04:16.657Z,24.1
2018-05-04T14:05:25.542Z,23.78
2018-05-04T14:06:34.444Z,24.03
2018-05-04T14:07:43.488Z,24.09
2018-05-04T14:08:52.687Z,24.21
2018-05-04T14:10:01.623Z,24.2
2018-05-04T14:11:10.492Z,24.2
2018-05-04T14:12:19.343Z,24.08
2018-05-04T14:13:28.297Z,24.1
2018-05-04T14:14:37.152Z,24.22
2018-05-04T14:15:46.009Z,24.25
2018-05-04T14:16:55.154Z,24.18
2018-05-04T14:18:04.560Z,24.05
2018-05-04T14:19:13.568Z,24.15
2018-05-04T14:20:22.427Z,24.31
2018-05-04T14:21:31.563Z,24.39
2018-05-04T14:22:40.419Z,24.34
2018-05-04T14:23:49.273Z,24.2
2018-05-04T14:24:58.126Z,24.24
2018-05-04T14:26:07.260Z,24.32
2018-05-04T14:27:16.461Z,24.2
2018-05-04T14:28:25.269Z,24.27
2018-05-04T14:29:34.120Z,23.76
2018-05-04T14:30:43.175Z,23.95
2018-05-04T14:31:52.313Z,24.05
2018-05-04T14:33:01.167Z,24.12
2018-05-04T14:34:10.302Z,24.15
2018-05-04T14:35:19.438Z,24.08
2018-05-04T14:36:28.293Z,24.09
2018-05-04T14:37:37.149Z,23.93
2018-05-04T14:38:46.008Z,23.94
2018-05-04T14:39:55.701Z,24.2
2018-05-04T14:41:04.559Z,24.27
2018-05-04T14:42:13.458Z,24.35
2018-05-04T14:43:22.639Z,24.28
2018-05-04T14:44:31.448Z,24.22
2018-05-04T14:45:40.304Z,24.32
2018-05-04T14:46:49.160Z,24.43
2018-05-04T14:47:58.438Z,24.28
2018-05-04T14:49:07.293Z,24.34
2018-05-04T14:50:16.147Z,24.39
2018-05-04T14:51:25.022Z,24.49
2018-05-04T14:52:34.165Z,24.58
2018-05-04T14:53:43.373Z,24.58
2018-05-04T14:54:52.502Z,24.47
2018-05-04T14:56:01.360Z,24.43
2018-05-04T14:57:10.212Z,24.37
2018-05-04T14:58:19.068Z,24.39
2018-05-04T14:59:27.970Z,24.3
2018-05-04T15:00:36.824Z,24.57
2018-05-04T15:01:45.954Z,24.53
2018-05-04T15:02:54.817Z,24.53
2018-05-04T15:04:03.949Z,24.6
2018-05-04T15:05:13.587Z,24.8
2018-05-04T15:06:22.442Z,24.88
2018-05-04T15:07:31.299Z,24.9